createdAt,value
2022-10-26T00:00:12.345Z,3.10
2022-10-26T00:05:13.977Z,2.50
2022-10-26T00:10:15.768Z,3.08
2022-10-26T00:15:19.058Z,2.57
2022-10-26T00:20:20.895Z,2.67
2022-10-26T00:25:22.553Z,2.35
2022-10-26T00:30:24.416Z,2.20
2022-10-26T00:35:44.560Z,3.38
2022-10-26T00:40:48.025Z,2.30
2022-10-26T00:45:52.921Z,2.60
2022-10-26T00:50:58.765Z,2.78
2022-10-26T00:56:01.178Z,3.08
2022-10-26T01:01:03.415Z,3.00
2022-10-26T01:06:06.733Z,3.15
2022-10-26T01:11:08.642Z,3.22
2022-10-26T01:16:25.249Z,2.93
2022-10-26T01:21:41.522Z,3.20
2022-10-26T01:27:09.291Z,3.72
2022-10-26T01:32:38.714Z,4.00
2022-10-26T01:37:48.866Z,3.30
2022-10-26T01:42:54.878Z,3.80
2022-10-26T01:47:58.218Z,3.70
2022-10-26T01:52:59.933Z,3.50
2022-10-26T01:58:20.305Z,4.28
2022-10-26T02:03:37.901Z,3.42
2022-10-26T02:08:55.469Z,3.90
2022-10-26T02:14:21.909Z,3.65
2022-10-26T02:19:44.647Z,4.20
2022-10-26T02:24:50.527Z,3.80
2022-10-26T02:29:54.386Z,4.28
2022-10-26T02:34:58.739Z,3.80
2022-10-26T02:40:04.652Z,3.42
2022-10-26T02:45:12.691Z,3.67
2022-10-26T02:50:14.777Z,3.28
2022-10-26T02:55:27.478Z,2.70
2022-10-26T03:00:30.723Z,3.08
2022-10-26T03:05:33.087Z,4.20
2022-10-26T03:10:41.355Z,3.15
2022-10-26T03:15:43.198Z,3.30
2022-10-26T03:20:45.878Z,3.42
2022-10-26T03:25:47.984Z,3.30
2022-10-26T03:30:49.822Z,3.77
2022-10-26T03:35:56.682Z,4.10
2022-10-26T03:40:59.534Z,4.60
2022-10-26T03:46:01.555Z,4.03
2022-10-26T03:51:03.219Z,3.17
2022-10-26T03:56:05.246Z,4.10
2022-10-26T04:01:06.944Z,3.87
2022-10-26T04:06:08.793Z,3.38
2022-10-26T04:11:10.489Z,3.93
2022-10-26T04:16:12.142Z,3.28
2022-10-26T04:21:13.861Z,3.63
2022-10-26T04:26:15.752Z,2.65
2022-10-26T04:31:17.452Z,3.70
2022-10-26T04:36:19.180Z,4.25
2022-10-26T04:41:20.925Z,4.75
2022-10-26T04:46:22.697Z,4.25
2022-10-26T04:51:24.436Z,4.65
2022-10-26T04:56:26.168Z,4.95
2022-10-26T05:01:28.004Z,5.90
2022-10-26T05:06:30.317Z,5.20
2022-10-26T05:11:32.047Z,5.25
2022-10-26T05:16:33.828Z,3.50
2022-10-26T05:21:35.683Z,5.32
2022-10-26T05:26:37.439Z,5.30
2022-10-26T05:31:39.120Z,4.25
2022-10-26T05:36:40.796Z,5.32
2022-10-26T05:41:42.524Z,3.40
2022-10-26T05:46:46.869Z,3.35
2022-10-26T05:51:48.616Z,3.55
2022-10-26T05:56:50.740Z,5.13
2022-10-26T06:02:07.081Z,5.93
2022-10-26T06:07:14.681Z,4.90
2022-10-26T06:12:19.411Z,4.72
2022-10-26T06:17:42.108Z,5.10
2022-10-26T06:23:01.215Z,5.30
2022-10-26T06:28:21.943Z,5.65
2022-10-26T06:33:29.566Z,5.30
2022-10-26T06:38:34.477Z,5.20
2022-10-26T06:43:36.435Z,5.30
2022-10-26T06:48:46.964Z,4.70
2022-10-26T06:54:21.367Z,4.90
2022-10-26T06:59:37.017Z,5.72
2022-10-26T07:04:38.729Z,6.03
2022-10-26T07:09:40.483Z,4.40
2022-10-26T07:14:42.339Z,4.53
2022-10-26T07:19:44.865Z,4.68
2022-10-26T07:24:50.400Z,4.82
2022-10-26T07:29:52.085Z,4.85
2022-10-26T07:34:53.830Z,4.35
2022-10-26T07:39:55.695Z,3.38
2022-10-26T07:44:57.475Z,3.58
2022-10-26T07:49:59.408Z,2.97
2022-10-26T07:55:01.209Z,3.08
2022-10-26T08:00:04.960Z,3.30
2022-10-26T08:05:07.038Z,3.13
2022-10-26T08:10:09.584Z,3.37
2022-10-26T08:15:12.215Z,3.28
2022-10-26T08:20:13.967Z,2.95
2022-10-26T08:25:17.694Z,2.75
2022-10-26T08:30:22.307Z,2.85
2022-10-26T08:35:24.228Z,3.03
2022-10-26T08:40:30.202Z,3.67
2022-10-26T08:45:38.438Z,5.43
2022-10-26T08:50:53.762Z,3.53
2022-10-26T08:56:06.114Z,2.67
2022-10-26T09:01:08.852Z,2.83
2022-10-26T09:06:44.551Z,3.05
2022-10-26T09:12:05.287Z,3.08
2022-10-26T09:17:47.138Z,2.60
2022-10-26T09:23:08.325Z,2.80
2022-10-26T09:28:17.510Z,3.10
2022-10-26T09:33:27.262Z,2.50
2022-10-26T09:38:47.385Z,3.88
2022-10-26T09:43:58.086Z,5.50
2022-10-26T09:49:06.726Z,2.55
2022-10-26T09:54:16.065Z,2.50
2022-10-26T09:59:21.818Z,3.00
2022-10-26T10:04:24.045Z,2.70
2022-10-26T10:09:25.774Z,2.90
2022-10-26T10:14:32.596Z,2.58
2022-10-26T10:19:38.581Z,2.40
2022-10-26T10:24:53.434Z,2.50
2022-10-26T10:30:00.015Z,2.50
2022-10-26T10:35:24.077Z,2.13
2022-10-26T10:40:31.384Z,2.17
2022-10-26T10:45:34.763Z,2.25
2022-10-26T10:50:36.552Z,2.28
2022-10-26T10:55:39.085Z,2.70
2022-10-26T11:00:44.146Z,2.78
2022-10-26T11:06:00.310Z,2.30
2022-10-26T11:11:10.662Z,2.47
2022-10-26T11:16:16.782Z,2.35
2022-10-26T11:21:30.137Z,2.20
2022-10-26T11:26:43.572Z,2.58
2022-10-26T11:31:54.502Z,2.60
2022-10-26T11:37:03.621Z,2.85
2022-10-26T11:42:26.263Z,3.00
2022-10-26T11:48:11.290Z,2.72
2022-10-26T11:53:17.461Z,2.65
2022-10-26T11:58:22.991Z,2.72
2022-10-26T12:03:28.458Z,2.88
2022-10-26T12:08:35.661Z,3.00
2022-10-26T12:13:52.739Z,2.78
2022-10-26T12:18:59.323Z,2.92
2022-10-26T12:24:22.670Z,2.58
2022-10-26T12:29:46.303Z,3.00
2022-10-26T12:34:50.880Z,2.80
2022-10-26T12:39:52.682Z,3.22
2022-10-26T12:44:56.470Z,3.00
2022-10-26T12:50:18.926Z,2.75
2022-10-26T12:55:20.542Z,2.90
2022-10-26T13:00:25.224Z,2.72
2022-10-26T13:05:34.331Z,2.83
2022-10-26T13:10:38.277Z,2.33
2022-10-26T13:15:41.067Z,2.80
2022-10-26T13:26:12.823Z,3.33
2022-10-26T13:31:41.591Z,3.22
2022-10-26T13:36:51.153Z,2.65
2022-10-26T13:41:55.515Z,2.47
2022-10-26T13:47:06.951Z,2.42
2022-10-26T13:52:21.260Z,2.30
2022-10-26T13:57:32.435Z,2.38
2022-10-26T14:02:34.178Z,2.67
2022-10-26T14:07:37.650Z,2.73
2022-10-26T14:12:39.539Z,2.65
2022-10-26T14:17:42.081Z,2.80
2022-10-26T14:22:44.093Z,2.70
2022-10-26T14:27:45.899Z,2.67
2022-10-26T14:32:48.244Z,3.30
2022-10-26T14:48:07.641Z,2.92
2022-10-26T14:53:18.758Z,3.53
2022-10-26T15:03:29.251Z,2.40
2022-10-26T15:08:52.631Z,2.67
2022-10-26T15:13:59.091Z,2.90
2022-10-26T15:19:11.140Z,3.58
2022-10-26T15:24:35.948Z,3.03
2022-10-26T15:29:44.438Z,3.20
2022-10-26T15:34:50.583Z,3.28
2022-10-26T15:39:52.228Z,3.15
2022-10-26T15:44:54.037Z,2.90
2022-10-26T15:49:55.815Z,3.00
2022-10-26T15:54:57.835Z,2.90
2022-10-26T15:59:59.627Z,2.92
2022-10-26T16:05:01.573Z,3.43
2022-10-26T16:10:03.481Z,2.90
2022-10-26T16:15:06.231Z,2.67
2022-10-26T16:20:16.482Z,3.22
2022-10-26T16:25:23.570Z,3.72
2022-10-26T16:30:30.111Z,3.95
2022-10-26T16:35:32.177Z,3.85
2022-10-26T16:40:33.922Z,3.33
2022-10-26T16:45:35.641Z,3.50
2022-10-26T16:50:37.383Z,5.53
2022-10-26T16:55:39.190Z,3.97
2022-10-26T17:00:40.997Z,4.20
2022-10-26T17:05:42.799Z,4.32
2022-10-26T17:10:44.467Z,3.53
2022-10-26T17:15:46.290Z,2.88
2022-10-26T17:20:51.637Z,3.50
2022-10-26T17:25:53.923Z,3.00
2022-10-26T17:31:12.026Z,4.07
2022-10-26T17:36:14.159Z,3.20
2022-10-26T17:41:18.249Z,3.55
2022-10-26T17:46:24.114Z,3.67
2022-10-26T17:51:27.490Z,3.33
2022-10-26T17:56:32.341Z,3.92
2022-10-26T18:01:34.248Z,3.95
2022-10-26T18:06:36.033Z,3.87
2022-10-26T18:11:37.665Z,3.17
2022-10-26T18:16:39.330Z,3.42
2022-10-26T18:21:41.006Z,3.65
2022-10-26T18:26:42.634Z,3.75
2022-10-26T18:31:44.986Z,4.00
2022-10-26T18:36:46.660Z,4.40
2022-10-26T18:41:48.414Z,3.17
2022-10-26T18:46:51.925Z,2.47
2022-10-26T18:51:53.801Z,3.13
2022-10-26T18:56:55.487Z,3.63
2022-10-26T19:01:57.327Z,3.20
2022-10-26T19:07:01.429Z,2.53
2022-10-26T19:12:03.962Z,4.20
2022-10-26T19:17:05.798Z,3.78
2022-10-26T19:22:07.702Z,3.00
2022-10-26T19:27:09.405Z,2.83
2022-10-26T19:32:12.302Z,2.97
2022-10-26T19:42:15.697Z,4.30
2022-10-26T19:47:17.383Z,4.63
2022-10-26T19:57:20.734Z,3.10
2022-10-26T20:02:22.363Z,4.07
2022-10-26T20:07:24.005Z,4.05
2022-10-26T20:12:25.680Z,6.57
2022-10-26T20:17:28.702Z,6.13
2022-10-26T20:27:32.149Z,5.65
2022-10-26T20:32:34.010Z,6.00
2022-10-26T20:37:36.079Z,4.97
2022-10-26T20:42:38.359Z,4.43
2022-10-26T20:47:40.817Z,4.03
2022-10-26T20:53:01.483Z,4.70
2022-10-26T20:58:09.753Z,4.25
2022-10-26T21:03:12.791Z,5.07
2022-10-26T21:08:14.492Z,4.88
2022-10-26T21:13:16.638Z,4.90
2022-10-26T21:18:18.442Z,4.50
2022-10-26T21:23:20.111Z,4.78
2022-10-26T21:28:21.867Z,5.78
2022-10-26T21:33:31.771Z,5.18
2022-10-26T21:38:34.394Z,4.03
2022-10-26T21:43:37.907Z,4.18
2022-10-26T21:48:42.428Z,4.15
2022-10-26T21:53:44.865Z,3.65
2022-10-26T21:58:47.312Z,3.60
2022-10-26T22:03:49.831Z,3.75
2022-10-26T22:08:56.327Z,3.60
2022-10-26T22:13:57.991Z,3.20
2022-10-26T22:19:04.893Z,4.00
2022-10-26T22:24:07.643Z,3.55
2022-10-26T22:29:10.013Z,4.30
2022-10-26T22:34:16.721Z,5.00
2022-10-26T22:39:18.797Z,4.38
2022-10-26T22:44:20.429Z,4.53
2022-10-26T22:49:22.089Z,4.43
2022-10-26T22:54:23.778Z,3.30
2022-10-26T22:59:25.584Z,3.03
2022-10-26T23:04:27.281Z,3.55
2022-10-26T23:09:29.202Z,4.17
2022-10-26T23:14:30.905Z,4.28
2022-10-26T23:19:32.562Z,4.03
2022-10-26T23:24:34.260Z,5.10
2022-10-26T23:29:36.062Z,4.88
2022-10-26T23:34:37.797Z,4.40
2022-10-26T23:39:39.675Z,3.53
2022-10-26T23:44:41.402Z,3.60
2022-10-26T23:49:43.040Z,5.15
2022-10-26T23:54:44.785Z,3.65
2022-10-26T23:59:46.477Z,3.90
